sensor_id;sensor_type;location;lat;lon;timestamp;P1;durP1;ratioP1;P2;durP2;ratioP2
17596;SDS011;8917;50.942;6.946;2023-05-13T00:01:52;9.70;;;8.70;;
17596;SDS011;8917;50.942;6.946;2023-05-13T00:04:19;10.53;;;8.87;;
17596;SDS011;8917;50.942;6.946;2023-05-13T00:06:46;10.80;;;9.00;;
17596;SDS011;8917;50.942;6.946;2023-05-13T00:09:13;10.53;;;9.43;;
17596;SDS011;8917;50.942;6.946;2023-05-13T00:11:41;10.47;;;9.27;;
17596;SDS011;8917;50.942;6.946;2023-05-13T00:14:08;11.73;;;9.17;;
17596;SDS011;8917;50.942;6.946;2023-05-13T00:16:36;11.17;;;9.10;;
17596;SDS011;8917;50.942;6.946;2023-05-13T00:19:04;10.67;;;9.30;;
17596;SDS011;8917;50.942;6.946;2023-05-13T00:21:31;12.03;;;9.40;;
17596;SDS011;8917;50.942;6.946;2023-05-13T00:23:59;11.70;;;10.00;;
17596;SDS011;8917;50.942;6.946;2023-05-13T00:26:26;13.10;;;10.00;;
17596;SDS011;8917;50.942;6.946;2023-05-13T00:28:53;12.73;;;10.50;;
17596;SDS011;8917;50.942;6.946;2023-05-13T00:31:20;13.87;;;10.50;;
17596;SDS011;8917;50.942;6.946;2023-05-13T00:33:47;11.97;;;10.77;;
17596;SDS011;8917;50.942;6.946;2023-05-13T00:36:16;14.33;;;10.57;;
17596;SDS011;8917;50.942;6.946;2023-05-13T00:38:43;12.93;;;11.47;;
17596;SDS011;8917;50.942;6.946;2023-05-13T00:41:10;13.13;;;11.73;;
17596;SDS011;8917;50.942;6.946;2023-05-13T00:43:37;16.27;;;12.20;;
17596;SDS011;8917;50.942;6.946;2023-05-13T00:46:05;13.80;;;12.13;;
17596;SDS011;8917;50.942;6.946;2023-05-13T00:48:32;15.73;;;11.53;;
17596;SDS011;8917;50.942;6.946;2023-05-13T00:50:59;12.87;;;10.90;;
17596;SDS011;8917;50.942;6.946;2023-05-13T00:53:28;12.73;;;10.33;;
17596;SDS011;8917;50.942;6.946;2023-05-13T00:55:55;12.80;;;11.37;;
17596;SDS011;8917;50.942;6.946;2023-05-13T00:58:23;15.27;;;10.80;;
17596;SDS011;8917;50.942;6.946;2023-05-13T01:00:52;13.63;;;10.47;;
17596;SDS011;8917;50.942;6.946;2023-05-13T01:03:26;14.03;;;10.37;;
17596;SDS011;8917;50.942;6.946;2023-05-13T01:05:57;10.80;;;9.67;;
17596;SDS011;8917;50.942;6.946;2023-05-13T01:08:30;12.27;;;10.10;;
17596;SDS011;8917;50.942;6.946;2023-05-13T01:11:02;13.40;;;9.80;;
17596;SDS011;8917;50.942;6.946;2023-05-13T01:13:30;10.23;;;9.23;;
17596;SDS011;8917;50.942;6.946;2023-05-13T01:16:02;11.20;;;10.10;;
17596;SDS011;8917;50.942;6.946;2023-05-13T01:18:32;12.67;;;10.27;;
17596;SDS011;8917;50.942;6.946;2023-05-13T01:21:03;11.50;;;9.33;;
17596;SDS011;8917;50.942;6.946;2023-05-13T01:23:32;14.50;;;10.77;;
17596;SDS011;8917;50.942;6.946;2023-05-13T01:25:59;11.97;;;10.23;;
17596;SDS011;8917;50.942;6.946;2023-05-13T01:28:27;13.37;;;10.83;;
17596;SDS011;8917;50.942;6.946;2023-05-13T01:30:54;15.60;;;10.50;;
17596;SDS011;8917;50.942;6.946;2023-05-13T01:33:21;12.47;;;9.83;;
17596;SDS011;8917;50.942;6.946;2023-05-13T01:35:49;11.27;;;10.13;;
17596;SDS011;8917;50.942;6.946;2023-05-13T01:38:18;11.53;;;10.13;;
17596;SDS011;8917;50.942;6.946;2023-05-13T01:40:47;11.47;;;10.27;;
17596;SDS011;8917;50.942;6.946;2023-05-13T01:43:14;11.73;;;10.53;;
17596;SDS011;8917;50.942;6.946;2023-05-13T01:45:42;11.80;;;10.60;;
17596;SDS011;8917;50.942;6.946;2023-05-13T01:48:09;13.23;;;10.80;;
17596;SDS011;8917;50.942;6.946;2023-05-13T01:50:36;11.80;;;10.23;;
17596;SDS011;8917;50.942;6.946;2023-05-13T01:53:04;12.03;;;10.63;;
17596;SDS011;8917;50.942;6.946;2023-05-13T01:55:31;11.50;;;10.30;;
17596;SDS011;8917;50.942;6.946;2023-05-13T01:57:59;11.70;;;10.47;;
17596;SDS011;8917;50.942;6.946;2023-05-13T02:00:26;11.47;;;10.27;;
17596;SDS011;8917;50.942;6.946;2023-05-13T02:02:54;15.73;;;10.40;;
17596;SDS011;8917;50.942;6.946;2023-05-13T02:05:21;12.77;;;9.80;;
17596;SDS011;8917;50.942;6.946;2023-05-13T02:07:48;11.43;;;9.93;;
17596;SDS011;8917;50.942;6.946;2023-05-13T02:10:15;12.60;;;11.03;;
17596;SDS011;8917;50.942;6.946;2023-05-13T02:12:42;15.83;;;11.77;;
17596;SDS011;8917;50.942;6.946;2023-05-13T02:15:11;13.17;;;11.03;;
17596;SDS011;8917;50.942;6.946;2023-05-13T02:17:38;13.17;;;10.80;;
17596;SDS011;8917;50.942;6.946;2023-05-13T02:20:06;13.10;;;11.63;;
17596;SDS011;8917;50.942;6.946;2023-05-13T02:22:34;12.37;;;11.07;;
17596;SDS011;8917;50.942;6.946;2023-05-13T02:25:02;13.37;;;10.93;;
17596;SDS011;8917;50.942;6.946;2023-05-13T02:27:29;12.77;;;11.27;;
17596;SDS011;8917;50.942;6.946;2023-05-13T02:29:56;12.70;;;10.87;;
17596;SDS011;8917;50.942;6.946;2023-05-13T02:32:25;13.10;;;10.87;;
17596;SDS011;8917;50.942;6.946;2023-05-13T02:34:52;12.10;;;10.80;;
17596;SDS011;8917;50.942;6.946;2023-05-13T02:37:19;12.50;;;11.20;;
17596;SDS011;8917;50.942;6.946;2023-05-13T02:39:46;14.60;;;12.23;;
17596;SDS011;8917;50.942;6.946;2023-05-13T02:42:13;15.90;;;11.40;;
17596;SDS011;8917;50.942;6.946;2023-05-13T02:44:40;13.37;;;11.43;;
17596;SDS011;8917;50.942;6.946;2023-05-13T02:47:08;12.80;;;11.43;;
17596;SDS011;8917;50.942;6.946;2023-05-13T02:49:36;15.47;;;12.87;;
17596;SDS011;8917;50.942;6.946;2023-05-13T02:52:03;12.67;;;11.30;;
17596;SDS011;8917;50.942;6.946;2023-05-13T02:54:31;13.80;;;12.30;;
17596;SDS011;8917;50.942;6.946;2023-05-13T02:56:58;13.93;;;12.07;;
17596;SDS011;8917;50.942;6.946;2023-05-13T02:59:25;13.93;;;12.63;;
17596;SDS011;8917;50.942;6.946;2023-05-13T03:01:52;13.40;;;12.13;;
17596;SDS011;8917;50.942;6.946;2023-05-13T03:04:19;14.50;;;11.73;;
17596;SDS011;8917;50.942;6.946;2023-05-13T03:06:49;14.53;;;13.03;;
17596;SDS011;8917;50.942;6.946;2023-05-13T03:09:17;14.20;;;11.90;;
17596;SDS011;8917;50.942;6.946;2023-05-13T03:11:44;14.13;;;12.63;;
17596;SDS011;8917;50.942;6.946;2023-05-13T03:14:11;14.40;;;12.90;;
17596;SDS011;8917;50.942;6.946;2023-05-13T03:16:38;16.13;;;12.87;;
17596;SDS011;8917;50.942;6.946;2023-05-13T03:19:05;14.43;;;12.80;;
17596;SDS011;8917;50.942;6.946;2023-05-13T03:21:32;16.23;;;12.73;;
17596;SDS011;8917;50.942;6.946;2023-05-13T03:24:01;15.17;;;13.67;;
17596;SDS011;8917;50.942;6.946;2023-05-13T03:26:28;16.67;;;13.30;;
17596;SDS011;8917;50.942;6.946;2023-05-13T03:28:55;15.13;;;13.60;;
17596;SDS011;8917;50.942;6.946;2023-05-13T03:31:22;14.17;;;12.50;;
17596;SDS011;8917;50.942;6.946;2023-05-13T03:33:50;14.27;;;12.30;;
17596;SDS011;8917;50.942;6.946;2023-05-13T03:36:17;14.10;;;12.03;;
17596;SDS011;8917;50.942;6.946;2023-05-13T03:38:44;19.17;;;12.23;;
17596;SDS011;8917;50.942;6.946;2023-05-13T03:41:13;14.97;;;12.37;;
17596;SDS011;8917;50.942;6.946;2023-05-13T03:43:41;14.43;;;12.83;;
17596;SDS011;8917;50.942;6.946;2023-05-13T03:46:08;13.90;;;11.47;;
17596;SDS011;8917;50.942;6.946;2023-05-13T03:48:35;14.47;;;11.70;;
17596;SDS011;8917;50.942;6.946;2023-05-13T03:51:03;14.60;;;13.07;;
17596;SDS011;8917;50.942;6.946;2023-05-13T03:53:30;13.87;;;11.57;;
17596;SDS011;8917;50.942;6.946;2023-05-13T03:55:57;12.23;;;10.87;;
17596;SDS011;8917;50.942;6.946;2023-05-13T03:58:26;14.57;;;11.70;;
17596;SDS011;8917;50.942;6.946;2023-05-13T04:00:53;12.77;;;11.40;;
17596;SDS011;8917;50.942;6.946;2023-05-13T04:03:20;14.80;;;11.70;;
17596;SDS011;8917;50.942;6.946;2023-05-13T04:05:48;13.70;;;11.67;;
17596;SDS011;8917;50.942;6.946;2023-05-13T04:08:15;13.47;;;11.53;;
17596;SDS011;8917;50.942;6.946;2023-05-13T04:10:42;15.20;;;11.87;;
17596;SDS011;8917;50.942;6.946;2023-05-13T04:13:10;12.83;;;11.30;;
17596;SDS011;8917;50.942;6.946;2023-05-13T04:15:38;14.70;;;12.07;;
17596;SDS011;8917;50.942;6.946;2023-05-13T04:18:05;14.47;;;12.60;;
17596;SDS011;8917;50.942;6.946;2023-05-13T04:20:33;16.10;;;12.13;;
17596;SDS011;8917;50.942;6.946;2023-05-13T04:23:00;15.53;;;12.50;;
17596;SDS011;8917;50.942;6.946;2023-05-13T04:25:27;48.13;;;34.57;;
17596;SDS011;8917;50.942;6.946;2023-05-13T04:27:55;15.00;;;13.40;;
17596;SDS011;8917;50.942;6.946;2023-05-13T04:30:22;14.73;;;13.17;;
17596;SDS011;8917;50.942;6.946;2023-05-13T04:32:51;14.97;;;13.50;;
17596;SDS011;8917;50.942;6.946;2023-05-13T04:35:18;15.00;;;13.40;;
17596;SDS011;8917;50.942;6.946;2023-05-13T04:37:45;15.87;;;13.37;;
17596;SDS011;8917;50.942;6.946;2023-05-13T04:40:13;17.80;;;12.87;;
17596;SDS011;8917;50.942;6.946;2023-05-13T04:42:40;14.67;;;13.10;;
17596;SDS011;8917;50.942;6.946;2023-05-13T04:45:08;14.03;;;12.57;;
17596;SDS011;8917;50.942;6.946;2023-05-13T04:47:35;15.07;;;12.83;;
17596;SDS011;8917;50.942;6.946;2023-05-13T04:50:04;16.20;;;13.20;;
17596;SDS011;8917;50.942;6.946;2023-05-13T04:52:31;15.07;;;12.43;;
17596;SDS011;8917;50.942;6.946;2023-05-13T04:54:58;13.23;;;11.93;;
17596;SDS011;8917;50.942;6.946;2023-05-13T04:57:25;14.23;;;12.73;;
17596;SDS011;8917;50.942;6.946;2023-05-13T04:59:53;13.80;;;12.40;;
17596;SDS011;8917;50.942;6.946;2023-05-13T05:02:20;14.17;;;12.70;;
17596;SDS011;8917;50.942;6.946;2023-05-13T05:04:47;14.03;;;12.43;;
17596;SDS011;8917;50.942;6.946;2023-05-13T05:07:16;13.50;;;12.27;;
17596;SDS011;8917;50.942;6.946;2023-05-13T05:09:43;14.13;;;12.53;;
17596;SDS011;8917;50.942;6.946;2023-05-13T05:12:10;13.83;;;12.43;;
17596;SDS011;8917;50.942;6.946;2023-05-13T05:14:37;13.33;;;12.07;;
17596;SDS011;8917;50.942;6.946;2023-05-13T05:17:05;13.30;;;11.07;;
17596;SDS011;8917;50.942;6.946;2023-05-13T05:19:32;14.10;;;11.80;;
17596;SDS011;8917;50.942;6.946;2023-05-13T05:21:59;14.87;;;12.23;;
17596;SDS011;8917;50.942;6.946;2023-05-13T05:24:27;14.83;;;12.93;;
17596;SDS011;8917;50.942;6.946;2023-05-13T05:26:55;17.13;;;12.57;;
17596;SDS011;8917;50.942;6.946;2023-05-13T05:29:22;14.80;;;12.43;;
17596;SDS011;8917;50.942;6.946;2023-05-13T05:31:49;13.50;;;12.10;;
17596;SDS011;8917;50.942;6.946;2023-05-13T05:34:16;14.63;;;12.97;;
17596;SDS011;8917;50.942;6.946;2023-05-13T05:36:43;14.13;;;12.17;;
17596;SDS011;8917;50.942;6.946;2023-05-13T05:39:10;23.47;;;19.93;;
17596;SDS011;8917;50.942;6.946;2023-05-13T05:41:39;15.47;;;13.13;;
17596;SDS011;8917;50.942;6.946;2023-05-13T05:44:06;13.47;;;12.17;;
17596;SDS011;8917;50.942;6.946;2023-05-13T05:46:34;16.03;;;12.30;;
17596;SDS011;8917;50.942;6.946;2023-05-13T05:49:01;15.63;;;12.33;;
17596;SDS011;8917;50.942;6.946;2023-05-13T05:51:28;14.57;;;12.77;;
17596;SDS011;8917;50.942;6.946;2023-05-13T05:53:55;52.73;;;15.17;;
17596;SDS011;8917;50.942;6.946;2023-05-13T05:56:22;13.30;;;11.87;;
17596;SDS011;8917;50.942;6.946;2023-05-13T05:58:51;13.70;;;12.30;;
17596;SDS011;8917;50.942;6.946;2023-05-13T06:01:18;14.50;;;12.87;;
17596;SDS011;8917;50.942;6.946;2023-05-13T06:03:45;14.17;;;12.67;;
17596;SDS011;8917;50.942;6.946;2023-05-13T06:06:12;12.17;;;10.87;;
17596;SDS011;8917;50.942;6.946;2023-05-13T06:08:39;12.33;;;11.03;;
17596;SDS011;8917;50.942;6.946;2023-05-13T06:11:07;11.80;;;10.00;;
17596;SDS011;8917;50.942;6.946;2023-05-13T06:13:34;11.00;;;9.90;;
17596;SDS011;8917;50.942;6.946;2023-05-13T06:16:02;10.67;;;9.60;;
17596;SDS011;8917;50.942;6.946;2023-05-13T06:18:30;11.33;;;10.17;;
17596;SDS011;8917;50.942;6.946;2023-05-13T06:20:57;10.10;;;9.10;;
17596;SDS011;8917;50.942;6.946;2023-05-13T06:23:24;9.37;;;8.47;;
17596;SDS011;8917;50.942;6.946;2023-05-13T06:25:51;11.27;;;9.00;;
17596;SDS011;8917;50.942;6.946;2023-05-13T06:28:18;10.27;;;9.20;;
17596;SDS011;8917;50.942;6.946;2023-05-13T06:30:46;9.80;;;8.73;;
17596;SDS011;8917;50.942;6.946;2023-05-13T06:33:14;13.47;;;8.70;;
17596;SDS011;8917;50.942;6.946;2023-05-13T06:35:41;10.40;;;9.40;;
17596;SDS011;8917;50.942;6.946;2023-05-13T06:38:12;8.80;;;8.00;;
17596;SDS011;8917;50.942;6.946;2023-05-13T06:40:41;8.80;;;7.90;;
17596;SDS011;8917;50.942;6.946;2023-05-13T06:43:09;8.83;;;7.80;;
17596;SDS011;8917;50.942;6.946;2023-05-13T06:45:38;8.60;;;7.80;;
17596;SDS011;8917;50.942;6.946;2023-05-13T06:48:05;17.23;;;13.97;;
17596;SDS011;8917;50.942;6.946;2023-05-13T06:50:34;10.60;;;7.40;;
17596;SDS011;8917;50.942;6.946;2023-05-13T06:53:01;7.73;;;6.80;;
17596;SDS011;8917;50.942;6.946;2023-05-13T06:55:28;6.93;;;6.23;;
17596;SDS011;8917;50.942;6.946;2023-05-13T06:57:55;9.10;;;7.00;;
17596;SDS011;8917;50.942;6.946;2023-05-13T07:00:22;7.57;;;6.83;;
17596;SDS011;8917;50.942;6.946;2023-05-13T07:02:50;8.37;;;7.37;;
17596;SDS011;8917;50.942;6.946;2023-05-13T07:05:17;8.87;;;7.40;;
17596;SDS011;8917;50.942;6.946;2023-05-13T07:07:46;9.77;;;8.00;;
17596;SDS011;8917;50.942;6.946;2023-05-13T07:10:17;8.30;;;7.53;;
17596;SDS011;8917;50.942;6.946;2023-05-13T07:12:44;8.47;;;7.53;;
17596;SDS011;8917;50.942;6.946;2023-05-13T07:15:12;8.20;;;7.40;;
17596;SDS011;8917;50.942;6.946;2023-05-13T07:17:39;7.97;;;7.20;;
17596;SDS011;8917;50.942;6.946;2023-05-13T07:20:08;13.83;;;8.17;;
17596;SDS011;8917;50.942;6.946;2023-05-13T07:22:35;8.23;;;7.43;;
17596;SDS011;8917;50.942;6.946;2023-05-13T07:25:04;8.57;;;7.77;;
17596;SDS011;8917;50.942;6.946;2023-05-13T07:27:31;9.43;;;7.63;;
17596;SDS011;8917;50.942;6.946;2023-05-13T07:29:59;8.40;;;7.17;;
17596;SDS011;8917;50.942;6.946;2023-05-13T07:32:27;12.37;;;7.27;;
17596;SDS011;8917;50.942;6.946;2023-05-13T07:34:55;9.73;;;7.10;;
17596;SDS011;8917;50.942;6.946;2023-05-13T07:37:22;9.67;;;7.53;;
17596;SDS011;8917;50.942;6.946;2023-05-13T07:39:49;7.67;;;6.83;;
17596;SDS011;8917;50.942;6.946;2023-05-13T07:42:18;8.80;;;6.50;;
17596;SDS011;8917;50.942;6.946;2023-05-13T07:44:46;8.10;;;6.80;;
17596;SDS011;8917;50.942;6.946;2023-05-13T07:47:13;10.03;;;8.07;;
17596;SDS011;8917;50.942;6.946;2023-05-13T07:49:40;9.33;;;7.50;;
17596;SDS011;8917;50.942;6.946;2023-05-13T07:52:07;8.17;;;7.00;;
17596;SDS011;8917;50.942;6.946;2023-05-13T07:54:34;7.90;;;6.70;;
17596;SDS011;8917;50.942;6.946;2023-05-13T07:57:01;7.47;;;6.77;;
17596;SDS011;8917;50.942;6.946;2023-05-13T07:59:32;8.40;;;7.37;;
17596;SDS011;8917;50.942;6.946;2023-05-13T08:01:59;9.20;;;7.93;;
17596;SDS011;8917;50.942;6.946;2023-05-13T08:04:26;11.47;;;10.33;;
17596;SDS011;8917;50.942;6.946;2023-05-13T08:06:53;9.47;;;8.50;;
17596;SDS011;8917;50.942;6.946;2023-05-13T08:09:21;11.27;;;9.40;;
17596;SDS011;8917;50.942;6.946;2023-05-13T08:11:48;15.73;;;12.37;;
17596;SDS011;8917;50.942;6.946;2023-05-13T08:14:15;14.03;;;11.27;;
17596;SDS011;8917;50.942;6.946;2023-05-13T08:16:44;16.10;;;13.03;;
17596;SDS011;8917;50.942;6.946;2023-05-13T08:19:12;13.77;;;10.97;;
17596;SDS011;8917;50.942;6.946;2023-05-13T08:21:39;11.33;;;8.10;;
17596;SDS011;8917;50.942;6.946;2023-05-13T08:24:06;13.10;;;7.33;;
17596;SDS011;8917;50.942;6.946;2023-05-13T08:26:33;8.53;;;7.27;;
17596;SDS011;8917;50.942;6.946;2023-05-13T08:29:01;7.90;;;7.10;;
17596;SDS011;8917;50.942;6.946;2023-05-13T08:31:28;8.00;;;6.80;;
17596;SDS011;8917;50.942;6.946;2023-05-13T08:33:57;7.80;;;6.37;;
17596;SDS011;8917;50.942;6.946;2023-05-13T08:36:24;9.17;;;6.33;;
17596;SDS011;8917;50.942;6.946;2023-05-13T08:38:51;7.07;;;6.23;;
17596;SDS011;8917;50.942;6.946;2023-05-13T08:41:18;8.47;;;6.87;;
17596;SDS011;8917;50.942;6.946;2023-05-13T08:43:46;8.63;;;6.90;;
17596;SDS011;8917;50.942;6.946;2023-05-13T08:46:14;9.97;;;6.50;;
17596;SDS011;8917;50.942;6.946;2023-05-13T08:48:42;7.20;;;6.10;;
17596;SDS011;8917;50.942;6.946;2023-05-13T08:51:11;8.27;;;6.47;;
17596;SDS011;8917;50.942;6.946;2023-05-13T08:53:38;8.33;;;6.80;;
17596;SDS011;8917;50.942;6.946;2023-05-13T08:56:06;6.47;;;5.80;;
17596;SDS011;8917;50.942;6.946;2023-05-13T08:58:34;8.03;;;7.20;;
17596;SDS011;8917;50.942;6.946;2023-05-13T09:01:01;9.20;;;6.80;;
17596;SDS011;8917;50.942;6.946;2023-05-13T09:03:29;13.07;;;7.00;;
17596;SDS011;8917;50.942;6.946;2023-05-13T09:05:58;8.40;;;7.30;;
17596;SDS011;8917;50.942;6.946;2023-05-13T09:08:28;8.57;;;7.03;;
17596;SDS011;8917;50.942;6.946;2023-05-13T09:10:56;8.70;;;6.60;;
17596;SDS011;8917;50.942;6.946;2023-05-13T09:13:23;8.77;;;6.83;;
17596;SDS011;8917;50.942;6.946;2023-05-13T09:15:52;10.67;;;6.43;;
17596;SDS011;8917;50.942;6.946;2023-05-13T09:18:19;7.90;;;6.47;;
17596;SDS011;8917;50.942;6.946;2023-05-13T09:20:46;7.90;;;6.73;;
17596;SDS011;8917;50.942;6.946;2023-05-13T09:23:14;7.07;;;6.47;;
17596;SDS011;8917;50.942;6.946;2023-05-13T09:25:42;6.43;;;5.73;;
17596;SDS011;8917;50.942;6.946;2023-05-13T09:28:12;9.67;;;5.87;;
17596;SDS011;8917;50.942;6.946;2023-05-13T09:30:40;8.27;;;6.03;;
17596;SDS011;8917;50.942;6.946;2023-05-13T09:33:07;7.87;;;6.00;;
17596;SDS011;8917;50.942;6.946;2023-05-13T09:35:35;7.60;;;6.17;;
17596;SDS011;8917;50.942;6.946;2023-05-13T09:38:10;6.33;;;5.73;;
17596;SDS011;8917;50.942;6.946;2023-05-13T09:40:38;6.43;;;5.77;;
17596;SDS011;8917;50.942;6.946;2023-05-13T09:43:07;5.30;;;4.80;;
17596;SDS011;8917;50.942;6.946;2023-05-13T09:45:37;6.33;;;5.33;;
17596;SDS011;8917;50.942;6.946;2023-05-13T09:48:04;6.83;;;5.43;;
17596;SDS011;8917;50.942;6.946;2023-05-13T09:50:31;5.80;;;5.13;;
17596;SDS011;8917;50.942;6.946;2023-05-13T09:53:08;7.63;;;5.10;;
17596;SDS011;8917;50.942;6.946;2023-05-13T09:55:36;6.00;;;5.40;;
17596;SDS011;8917;50.942;6.946;2023-05-13T09:58:09;9.70;;;6.93;;
17596;SDS011;8917;50.942;6.946;2023-05-13T10:00:37;7.57;;;5.53;;
17596;SDS011;8917;50.942;6.946;2023-05-13T10:03:05;8.83;;;5.87;;
17596;SDS011;8917;50.942;6.946;2023-05-13T10:05:32;6.87;;;5.23;;
17596;SDS011;8917;50.942;6.946;2023-05-13T10:08:00;7.47;;;6.30;;
17596;SDS011;8917;50.942;6.946;2023-05-13T10:10:28;7.97;;;5.83;;
17596;SDS011;8917;50.942;6.946;2023-05-13T10:12:56;7.47;;;6.67;;
17596;SDS011;8917;50.942;6.946;2023-05-13T10:15:26;7.63;;;6.43;;
17596;SDS011;8917;50.942;6.946;2023-05-13T10:17:54;7.77;;;7.00;;
17596;SDS011;8917;50.942;6.946;2023-05-13T10:20:22;6.93;;;6.20;;
17596;SDS011;8917;50.942;6.946;2023-05-13T10:22:50;7.97;;;6.43;;
17596;SDS011;8917;50.942;6.946;2023-05-13T10:25:17;7.00;;;5.97;;
17596;SDS011;8917;50.942;6.946;2023-05-13T10:27:45;7.67;;;6.97;;
17596;SDS011;8917;50.942;6.946;2023-05-13T10:30:13;9.97;;;6.47;;
17596;SDS011;8917;50.942;6.946;2023-05-13T10:32:42;7.17;;;6.23;;
17596;SDS011;8917;50.942;6.946;2023-05-13T10:35:11;7.63;;;6.77;;
17596;SDS011;8917;50.942;6.946;2023-05-13T10:37:49;7.80;;;7.00;;
17596;SDS011;8917;50.942;6.946;2023-05-13T10:40:24;7.57;;;6.60;;
17596;SDS011;8917;50.942;6.946;2023-05-13T10:42:59;8.57;;;6.87;;
17596;SDS011;8917;50.942;6.946;2023-05-13T10:45:34;9.23;;;7.67;;
17596;SDS011;8917;50.942;6.946;2023-05-13T10:48:05;9.73;;;7.10;;
17596;SDS011;8917;50.942;6.946;2023-05-13T10:50:34;12.17;;;7.50;;
17596;SDS011;8917;50.942;6.946;2023-05-13T10:53:06;9.47;;;8.37;;
17596;SDS011;8917;50.942;6.946;2023-05-13T10:55:38;8.60;;;6.93;;
17596;SDS011;8917;50.942;6.946;2023-05-13T10:58:07;8.50;;;7.63;;
17596;SDS011;8917;50.942;6.946;2023-05-13T11:00:35;9.87;;;7.70;;
17596;SDS011;8917;50.942;6.946;2023-05-13T11:03:11;8.57;;;7.07;;
17596;SDS011;8917;50.942;6.946;2023-05-13T11:05:45;8.33;;;6.83;;
17596;SDS011;8917;50.942;6.946;2023-05-13T11:10:54;9.57;;;7.20;;
17596;SDS011;8917;50.942;6.946;2023-05-13T11:13:22;12.03;;;8.23;;
17596;SDS011;8917;50.942;6.946;2023-05-13T11:15:49;8.97;;;8.10;;
17596;SDS011;8917;50.942;6.946;2023-05-13T11:18:18;7.33;;;6.40;;
17596;SDS011;8917;50.942;6.946;2023-05-13T11:20:46;9.70;;;8.07;;
17596;SDS011;8917;50.942;6.946;2023-05-13T11:23:17;9.43;;;7.60;;
17596;SDS011;8917;50.942;6.946;2023-05-13T11:25:44;7.80;;;7.00;;
17596;SDS011;8917;50.942;6.946;2023-05-13T11:28:15;8.13;;;7.33;;
17596;SDS011;8917;50.942;6.946;2023-05-13T11:30:51;5.10;;;4.37;;
17596;SDS011;8917;50.942;6.946;2023-05-13T11:33:21;5.53;;;3.50;;
17596;SDS011;8917;50.942;6.946;2023-05-13T11:35:54;7.30;;;3.30;;
17596;SDS011;8917;50.942;6.946;2023-05-13T11:38:22;4.30;;;3.27;;
17596;SDS011;8917;50.942;6.946;2023-05-13T11:40:50;6.13;;;3.03;;
17596;SDS011;8917;50.942;6.946;2023-05-13T11:43:20;5.27;;;3.37;;
17596;SDS011;8917;50.942;6.946;2023-05-13T11:45:48;3.27;;;2.90;;
17596;SDS011;8917;50.942;6.946;2023-05-13T11:48:16;3.50;;;2.80;;
17596;SDS011;8917;50.942;6.946;2023-05-13T11:50:45;4.97;;;3.07;;
17596;SDS011;8917;50.942;6.946;2023-05-13T11:53:17;6.20;;;2.90;;
17596;SDS011;8917;50.942;6.946;2023-05-13T11:55:45;7.70;;;3.30;;
17596;SDS011;8917;50.942;6.946;2023-05-13T11:58:12;5.20;;;3.00;;
17596;SDS011;8917;50.942;6.946;2023-05-13T12:00:40;3.60;;;2.83;;
17596;SDS011;8917;50.942;6.946;2023-05-13T12:03:08;5.20;;;3.17;;
17596;SDS011;8917;50.942;6.946;2023-05-13T12:05:35;4.33;;;3.20;;
17596;SDS011;8917;50.942;6.946;2023-05-13T12:08:05;5.70;;;3.60;;
17596;SDS011;8917;50.942;6.946;2023-05-13T12:10:33;6.17;;;3.40;;
17596;SDS011;8917;50.942;6.946;2023-05-13T12:13:00;5.63;;;3.57;;
17596;SDS011;8917;50.942;6.946;2023-05-13T12:15:28;6.50;;;3.80;;
17596;SDS011;8917;50.942;6.946;2023-05-13T12:17:56;3.83;;;3.43;;
17596;SDS011;8917;50.942;6.946;2023-05-13T12:20:23;4.90;;;3.30;;
17596;SDS011;8917;50.942;6.946;2023-05-13T12:22:52;3.77;;;3.30;;
17596;SDS011;8917;50.942;6.946;2023-05-13T12:25:38;4.13;;;2.97;;
17596;SDS011;8917;50.942;6.946;2023-05-13T12:28:06;3.77;;;3.10;;
17596;SDS011;8917;50.942;6.946;2023-05-13T12:30:34;3.77;;;3.40;;
17596;SDS011;8917;50.942;6.946;2023-05-13T12:33:01;4.53;;;3.03;;
17596;SDS011;8917;50.942;6.946;2023-05-13T12:35:29;9.93;;;3.53;;
17596;SDS011;8917;50.942;6.946;2023-05-13T12:38:00;4.73;;;3.27;;
17596;SDS011;8917;50.942;6.946;2023-05-13T12:40:27;3.60;;;3.03;;
17596;SDS011;8917;50.942;6.946;2023-05-13T12:42:57;4.53;;;3.50;;
17596;SDS011;8917;50.942;6.946;2023-05-13T12:45:27;3.80;;;3.50;;
17596;SDS011;8917;50.942;6.946;2023-05-13T12:47:55;6.57;;;3.43;;
17596;SDS011;8917;50.942;6.946;2023-05-13T12:50:22;4.10;;;3.00;;
17596;SDS011;8917;50.942;6.946;2023-05-13T12:52:50;5.43;;;2.97;;
17596;SDS011;8917;50.942;6.946;2023-05-13T12:55:17;3.13;;;2.60;;
17596;SDS011;8917;50.942;6.946;2023-05-13T12:57:53;3.90;;;2.73;;
17596;SDS011;8917;50.942;6.946;2023-05-13T13:00:23;3.60;;;2.87;;
17596;SDS011;8917;50.942;6.946;2023-05-13T13:02:50;3.17;;;2.80;;
17596;SDS011;8917;50.942;6.946;2023-05-13T13:05:18;3.07;;;2.77;;
17596;SDS011;8917;50.942;6.946;2023-05-13T13:07:46;2.93;;;2.63;;
17596;SDS011;8917;50.942;6.946;2023-05-13T13:10:13;3.10;;;2.80;;
17596;SDS011;8917;50.942;6.946;2023-05-13T13:12:40;3.13;;;2.83;;
17596;SDS011;8917;50.942;6.946;2023-05-13T13:15:08;4.67;;;2.90;;
17596;SDS011;8917;50.942;6.946;2023-05-13T13:17:37;19.83;;;16.40;;
17596;SDS011;8917;50.942;6.946;2023-05-13T13:20:05;3.77;;;2.87;;
17596;SDS011;8917;50.942;6.946;2023-05-13T13:22:32;3.20;;;2.90;;
17596;SDS011;8917;50.942;6.946;2023-05-13T13:25:01;6.57;;;3.80;;
17596;SDS011;8917;50.942;6.946;2023-05-13T13:27:28;5.20;;;3.40;;
17596;SDS011;8917;50.942;6.946;2023-05-13T13:29:55;5.23;;;3.70;;
17596;SDS011;8917;50.942;6.946;2023-05-13T13:32:22;3.60;;;2.87;;
17596;SDS011;8917;50.942;6.946;2023-05-13T13:34:51;3.10;;;2.70;;
17596;SDS011;8917;50.942;6.946;2023-05-13T13:37:18;3.93;;;2.60;;
17596;SDS011;8917;50.942;6.946;2023-05-13T13:39:45;2.73;;;2.47;;
17596;SDS011;8917;50.942;6.946;2023-05-13T13:42:12;3.37;;;2.67;;
17596;SDS011;8917;50.942;6.946;2023-05-13T13:44:40;5.57;;;3.33;;
17596;SDS011;8917;50.942;6.946;2023-05-13T13:47:07;3.47;;;2.90;;
17596;SDS011;8917;50.942;6.946;2023-05-13T13:49:35;2.87;;;2.27;;
17596;SDS011;8917;50.942;6.946;2023-05-13T13:52:03;2.30;;;2.10;;
17596;SDS011;8917;50.942;6.946;2023-05-13T13:54:30;3.00;;;2.47;;
17596;SDS011;8917;50.942;6.946;2023-05-13T13:56:58;2.60;;;2.30;;
17596;SDS011;8917;50.942;6.946;2023-05-13T13:59:25;3.20;;;2.40;;
17596;SDS011;8917;50.942;6.946;2023-05-13T14:01:52;2.87;;;2.60;;
17596;SDS011;8917;50.942;6.946;2023-05-13T14:04:20;3.30;;;3.00;;
17596;SDS011;8917;50.942;6.946;2023-05-13T14:06:51;3.30;;;3.00;;
17596;SDS011;8917;50.942;6.946;2023-05-13T14:09:20;4.53;;;3.40;;
17596;SDS011;8917;50.942;6.946;2023-05-13T14:11:47;3.60;;;3.20;;
17596;SDS011;8917;50.942;6.946;2023-05-13T14:14:15;4.17;;;3.27;;
17596;SDS011;8917;50.942;6.946;2023-05-13T14:16:43;5.23;;;3.30;;
17596;SDS011;8917;50.942;6.946;2023-05-13T14:19:10;4.33;;;3.23;;
17596;SDS011;8917;50.942;6.946;2023-05-13T14:21:37;3.97;;;3.50;;
17596;SDS011;8917;50.942;6.946;2023-05-13T14:24:05;3.30;;;3.00;;
17596;SDS011;8917;50.942;6.946;2023-05-13T14:26:37;3.08;;;2.65;;
17596;SDS011;8917;50.942;6.946;2023-05-13T14:29:04;5.60;;;3.70;;
17596;SDS011;8917;50.942;6.946;2023-05-13T14:31:31;4.97;;;4.30;;
17596;SDS011;8917;50.942;6.946;2023-05-13T14:33:58;3.55;;;3.13;;
17596;SDS011;8917;50.942;6.946;2023-05-13T14:36:25;4.22;;;3.42;;
17596;SDS011;8917;50.942;6.946;2023-05-13T14:38:53;3.60;;;3.30;;
17596;SDS011;8917;50.942;6.946;2023-05-13T14:41:20;3.80;;;3.17;;
17596;SDS011;8917;50.942;6.946;2023-05-13T14:43:49;4.55;;;3.10;;
17596;SDS011;8917;50.942;6.946;2023-05-13T14:46:17;3.77;;;3.33;;
17596;SDS011;8917;50.942;6.946;2023-05-13T14:48:44;4.35;;;3.45;;
17596;SDS011;8917;50.942;6.946;2023-05-13T14:51:11;3.35;;;3.10;;
17596;SDS011;8917;50.942;6.946;2023-05-13T14:53:39;4.32;;;2.97;;
17596;SDS011;8917;50.942;6.946;2023-05-13T14:56:06;3.05;;;2.60;;
17596;SDS011;8917;50.942;6.946;2023-05-13T14:58:33;5.97;;;2.90;;